Aloha, Oregon
Current Conditions -  °F | °C
As of 10:53 AM on Friday 28 Nov 2014 (Local Time) from KHIO Reporting Station
Light Rain Light Rain  
Wind Chill: 12°   Ceiling: 1000
Heat Index: 12°   Visibility: 4mi
Dew Point: 11°   Wind: 18mph
Humidity: 93%   Direction: 180°S
Pressure: 29.57"   Gusts: 29mph
Location:  45.49°N, 122.86°W
Report Text: KHIO 281853Z 18016G25KT 4SM -RA BR OVC010 12/11 A2957 RMK AO2 PK WND 18026/1806 SLP014 P0006 T01170106
Loading
Personal Weather Stations






























Interactive Weather Map New forecast layout! Learn more

10-Day Weather Forecast

Advertisements
Track Severe Weather on mobile